This is the latest recevied weather packets stored in our database for station/object M7PDA-1. If no packets are shown the sender has not sent any weather packets the latest 10 day(s).
| Time | Temp. | Humidity | Pressure | Rain* | Wind** | Luminosity | Snow |
|---|---|---|---|---|---|---|---|
| 1777924426 | 10° C | 73% | 1017.8 hPa | - | - | - | - |
| 1777923525 | 10° C | 72% | 1017.7 hPa | - | - | - | - |
| 1777922624 | 10.56° C | 72% | 1017.7 hPa | - | - | - | - |
| 1777921723 | 11.11° C | 71% | 1017.5 hPa | - | - | - | - |
| 1777920823 | 11.67° C | 70% | 1017.4 hPa | - | - | - | - |
| 1777919922 | 11.67° C | 70% | 1017.5 hPa | - | - | - | - |
| 1777919021 | 12.22° C | 70% | 1017.2 hPa | - | - | - | - |
| 1777918120 | 13.33° C | 69% | 1017.2 hPa | - | - | - | - |
| 1777917219 | 13.89° C | 68% | 1017.2 hPa | - | - | - | - |
| 1777916319 | 15° C | 67% | 1016.9 hPa | - | - | - | - |
| 1777915418 | 14.44° C | 67% | 1017.1 hPa | - | - | - | - |
| 1777914517 | 14.44° C | 67% | 1017.2 hPa | - | - | - | - |
| 1777913616 | 15° C | 65% | 1017.1 hPa | - | - | - | - |
| 1777912715 | 14.44° C | 66% | 1017.1 hPa | - | - | - | - |
| 1777911815 | 15° C | 64% | 1017.1 hPa | - | - | - | - |
| 1777910914 | 16.11° C | 64% | 1017.2 hPa | - | - | - | - |
| 1777910013 | 16.11° C | 63% | 1017.2 hPa | - | - | - | - |
| 1777909112 | 16.67° C | 61% | 1017.2 hPa | - | - | - | - |
| 1777908212 | 16.11° C | 64% | 1017.3 hPa | - | - | - | - |
| 1777907311 | 14.44° C | 67% | 1017.4 hPa | - | - | - | - |
| 1777906410 | 14.44° C | 66% | 1017.4 hPa | - | - | - | - |
| 1777905509 | 15.56° C | 64% | 1017.4 hPa | - | - | - | - |
| 1777904608 | 15.56° C | 63% | 1017.4 hPa | - | - | - | - |
| 1777903708 | 16.67° C | 62% | 1017.4 hPa | - | - | - | - |
| 1777902807 | 15° C | 63% | 1017.6 hPa | - | - | - | - |
* Rain since midnight (hover to see other rain measurements)
** Current wind speed in m/s (hover to see current wind gust speed)